createdAt,value
2023-03-15T00:00:31.088Z,3.54
2023-03-15T00:03:18.573Z,3.53
2023-03-15T00:05:48.356Z,3.59
2023-03-15T00:08:19.039Z,3.49
2023-03-15T00:10:48.143Z,3.50
2023-03-15T00:13:16.744Z,3.44
2023-03-15T00:15:48.999Z,3.43
2023-03-15T00:18:17.727Z,3.50
2023-03-15T00:20:45.755Z,3.44
2023-03-15T00:23:14.502Z,3.58
2023-03-15T00:25:46.631Z,3.47
2023-03-15T00:28:14.347Z,3.56
2023-03-15T00:30:42.679Z,3.65
2023-03-15T00:33:11.642Z,3.54
2023-03-15T00:35:40.998Z,3.56
2023-03-15T00:38:09.240Z,3.55
2023-03-15T00:40:38.536Z,3.56
2023-03-15T00:43:07.393Z,3.60
2023-03-15T00:45:35.390Z,3.72
2023-03-15T00:48:02.921Z,3.71
2023-03-15T00:50:30.832Z,3.80
2023-03-15T00:52:58.267Z,3.72
2023-03-15T00:55:26.096Z,3.76
2023-03-15T00:57:53.571Z,3.68
2023-03-15T01:00:24.265Z,3.56
2023-03-15T01:02:52.100Z,3.49
2023-03-15T01:05:20.207Z,3.37
2023-03-15T01:07:48.165Z,3.41
2023-03-15T01:10:16.918Z,3.34
2023-03-15T01:12:45.036Z,3.37
2023-03-15T01:15:14.948Z,3.42
2023-03-15T01:17:43.856Z,3.44
2023-03-15T01:20:13.608Z,3.60
2023-03-15T01:22:41.055Z,3.57
2023-03-15T01:25:09.907Z,3.58
2023-03-15T01:27:37.631Z,3.54
2023-03-15T01:30:06.504Z,3.52
2023-03-15T01:32:34.375Z,3.52
2023-03-15T01:35:03.963Z,3.38
2023-03-15T01:37:31.374Z,3.46
2023-03-15T01:39:59.453Z,3.47
2023-03-15T01:42:26.998Z,3.39
2023-03-15T01:44:56.774Z,3.28
2023-03-15T01:47:24.523Z,3.27
2023-03-15T01:49:58.585Z,3.24
2023-03-15T01:52:31.846Z,3.14
2023-03-15T01:55:02.583Z,3.25
2023-03-15T01:57:34.421Z,3.15
2023-03-15T02:00:06.739Z,3.12
2023-03-15T02:02:34.427Z,3.11
2023-03-15T02:05:09.108Z,3.09
2023-03-15T02:07:43.379Z,3.05
2023-03-15T02:10:14.916Z,3.20
2023-03-15T02:12:46.770Z,3.11
2023-03-15T02:15:15.183Z,3.06
2023-03-15T02:17:45.037Z,3.10
2023-03-15T02:20:24.377Z,3.13
2023-03-15T02:22:56.865Z,3.12
2023-03-15T02:25:36.985Z,3.06
2023-03-15T02:28:07.994Z,3.22
2023-03-15T02:30:36.181Z,3.06
2023-03-15T02:33:08.204Z,3.03
2023-03-15T02:35:36.066Z,3.00
2023-03-15T02:38:03.710Z,2.93
2023-03-15T02:40:31.915Z,3.01
2023-03-15T02:43:02.387Z,3.09
2023-03-15T02:45:33.572Z,2.96
2023-03-15T02:48:04.307Z,2.93
2023-03-15T02:50:32.597Z,2.80
2023-03-15T02:53:00.104Z,2.80
2023-03-15T02:55:27.911Z,2.83
2023-03-15T02:57:55.388Z,2.89
2023-03-15T03:00:23.267Z,2.87
2023-03-15T03:02:52.295Z,2.95
2023-03-15T03:05:20.582Z,2.97
2023-03-15T03:07:48.367Z,3.01
2023-03-15T03:10:18.830Z,2.88
2023-03-15T03:12:46.549Z,2.80
2023-03-15T03:15:14.314Z,2.79
2023-03-15T03:17:41.843Z,2.82
2023-03-15T03:20:12.833Z,2.91
2023-03-15T03:22:42.030Z,2.90
2023-03-15T03:25:10.733Z,2.96
2023-03-15T03:27:38.402Z,2.82
2023-03-15T03:30:09.024Z,2.86
2023-03-15T03:32:36.509Z,2.84
2023-03-15T03:35:04.838Z,2.83
2023-03-15T03:37:33.874Z,2.84
2023-03-15T03:40:01.901Z,2.96
2023-03-15T03:42:29.426Z,2.93
2023-03-15T03:44:57.283Z,2.88
2023-03-15T03:47:24.809Z,2.97
2023-03-15T03:49:52.948Z,2.90
2023-03-15T03:52:20.409Z,2.86
2023-03-15T03:54:49.686Z,2.89
2023-03-15T03:57:17.079Z,2.93
2023-03-15T03:59:44.835Z,2.89
2023-03-15T04:02:12.506Z,2.83
2023-03-15T04:04:40.371Z,2.88
2023-03-15T04:07:07.939Z,2.95
2023-03-15T04:09:36.086Z,2.87
2023-03-15T04:12:05.777Z,2.82
2023-03-15T04:14:33.679Z,2.71
2023-03-15T04:17:01.057Z,2.68
2023-03-15T04:19:29.075Z,2.61
2023-03-15T04:21:56.722Z,2.59
2023-03-15T04:24:24.565Z,2.50
2023-03-15T04:26:52.025Z,2.39
2023-03-15T04:29:21.453Z,2.45
2023-03-15T04:31:48.870Z,2.39
2023-03-15T04:34:16.739Z,2.34
2023-03-15T04:36:44.142Z,2.30
2023-03-15T04:39:12.216Z,2.30
2023-03-15T04:41:39.620Z,2.40
2023-03-15T04:44:07.474Z,2.37
2023-03-15T04:46:36.390Z,2.35
2023-03-15T04:49:04.255Z,2.41
2023-03-15T04:51:31.757Z,2.47
2023-03-15T04:53:59.575Z,2.35
2023-03-15T04:56:27.445Z,2.30
2023-03-15T04:58:55.406Z,2.16
2023-03-15T05:01:27.936Z,2.08
2023-03-15T05:03:57.203Z,2.01
2023-03-15T05:06:25.237Z,2.05
2023-03-15T05:08:53.963Z,2.09
2023-03-15T05:11:21.722Z,2.06
2023-03-15T05:13:49.704Z,2.08
2023-03-15T05:16:17.350Z,2.07
2023-03-15T05:18:45.343Z,2.04
2023-03-15T05:21:14.399Z,2.09
2023-03-15T05:23:42.281Z,2.00
2023-03-15T05:26:12.544Z,1.98
2023-03-15T05:28:40.459Z,2.03
2023-03-15T05:31:07.831Z,2.08
2023-03-15T05:33:35.689Z,2.20
2023-03-15T05:36:03.316Z,2.10
2023-03-15T05:38:32.642Z,2.14
2023-03-15T05:41:00.023Z,2.16
2023-03-15T05:43:27.861Z,2.21
2023-03-15T05:45:58.031Z,2.03
2023-03-15T05:48:25.855Z,2.07
2023-03-15T05:50:53.504Z,2.19
2023-03-15T05:53:21.407Z,2.28
2023-03-15T05:55:50.243Z,2.33
2023-03-15T05:58:18.058Z,2.31
2023-03-15T06:00:45.541Z,2.47
2023-03-15T06:03:13.400Z,2.58
2023-03-15T06:05:40.938Z,2.56
2023-03-15T06:08:09.154Z,2.50
2023-03-15T06:10:36.666Z,2.55
2023-03-15T06:13:08.975Z,2.68
2023-03-15T06:15:36.855Z,2.75
2023-03-15T06:18:04.880Z,2.83
2023-03-15T06:20:32.732Z,2.78
2023-03-15T06:23:00.633Z,2.90
2023-03-15T06:25:28.473Z,3.05
2023-03-15T06:27:56.354Z,3.12
2023-03-15T06:30:25.473Z,3.13
2023-03-15T06:32:53.428Z,3.04
2023-03-15T06:35:21.044Z,3.13
2023-03-15T06:37:48.967Z,3.17
2023-03-15T06:40:16.898Z,3.28
2023-03-15T06:42:44.796Z,3.34
2023-03-15T06:45:12.552Z,3.50
2023-03-15T06:47:41.767Z,3.62
2023-03-15T06:50:10.838Z,3.63
2023-03-15T06:52:38.728Z,3.66
2023-03-15T06:55:07.000Z,3.96
2023-03-15T06:57:34.810Z,4.14
2023-03-15T07:00:02.140Z,4.19
2023-03-15T07:02:30.065Z,4.20
2023-03-15T07:04:59.120Z,4.21
2023-03-15T07:07:27.490Z,4.38
2023-03-15T07:09:55.311Z,4.39
2023-03-15T07:12:23.702Z,4.61
2023-03-15T07:14:51.137Z,4.54
2023-03-15T07:17:18.946Z,4.68
2023-03-15T07:19:55.822Z,4.62
2023-03-15T07:22:25.969Z,4.85
2023-03-15T07:24:53.461Z,4.76
2023-03-15T07:27:21.335Z,4.88
2023-03-15T07:29:48.971Z,5.08
2023-03-15T07:32:16.888Z,5.22
2023-03-15T07:34:44.355Z,5.35
2023-03-15T07:37:12.128Z,5.45
2023-03-15T07:39:41.008Z,5.50
2023-03-15T07:42:09.491Z,5.50
2023-03-15T07:44:36.926Z,5.48
2023-03-15T07:47:05.282Z,5.46
2023-03-15T07:49:32.781Z,5.39
2023-03-15T07:52:00.660Z,5.19
2023-03-15T07:54:28.862Z,5.28
2023-03-15T07:56:58.141Z,5.17
2023-03-15T07:59:25.706Z,5.24
2023-03-15T08:01:53.569Z,5.44
2023-03-15T08:04:21.040Z,5.47
2023-03-15T08:06:48.908Z,5.48
2023-03-15T08:09:16.410Z,5.57
2023-03-15T08:11:45.330Z,5.60
2023-03-15T08:14:14.671Z,5.73
2023-03-15T08:16:42.477Z,5.80
2023-03-15T08:19:10.108Z,5.76
2023-03-15T08:21:37.954Z,5.89
2023-03-15T08:24:06.013Z,5.77
2023-03-15T08:26:33.946Z,6.02
2023-03-15T08:29:01.537Z,6.08
2023-03-15T08:31:30.858Z,6.04
2023-03-15T08:33:58.416Z,6.23
2023-03-15T08:36:26.198Z,6.51
2023-03-15T08:38:53.642Z,6.59
2023-03-15T08:41:21.474Z,6.69
2023-03-15T08:43:51.640Z,6.58
2023-03-15T08:46:19.586Z,6.72
2023-03-15T08:48:48.689Z,6.52
2023-03-15T08:51:16.670Z,6.59
2023-03-15T08:53:44.322Z,6.41
2023-03-15T08:56:12.328Z,6.52
2023-03-15T08:58:39.864Z,6.59
2023-03-15T09:01:08.003Z,6.97
2023-03-15T09:03:35.695Z,7.49
2023-03-15T09:06:05.337Z,7.60
2023-03-15T09:08:32.849Z,7.55
2023-03-15T09:11:01.101Z,7.47
2023-03-15T09:13:29.015Z,7.38
2023-03-15T09:15:57.506Z,7.23
2023-03-15T09:18:25.790Z,7.25
2023-03-15T09:20:53.690Z,7.43
2023-03-15T09:23:22.626Z,7.69
2023-03-15T09:25:50.545Z,7.99
2023-03-15T09:28:18.063Z,8.14
2023-03-15T09:30:46.207Z,8.53
2023-03-15T09:33:13.770Z,8.32
2023-03-15T09:35:42.148Z,8.16
2023-03-15T09:38:10.348Z,8.20
2023-03-15T09:40:42.124Z,8.54
2023-03-15T09:43:36.639Z,8.55
2023-03-15T09:46:20.812Z,8.73
2023-03-15T09:48:53.934Z,8.77
2023-03-15T09:51:33.860Z,8.59
2023-03-15T09:54:05.666Z,8.70
2023-03-15T09:56:39.716Z,8.77
2023-03-15T09:59:07.610Z,9.14
2023-03-15T10:01:37.853Z,9.47
2023-03-15T10:04:11.602Z,9.54
2023-03-15T10:06:43.910Z,9.73
2023-03-15T10:09:15.586Z,9.34
2023-03-15T10:11:53.827Z,9.50
2023-03-15T10:14:32.537Z,9.57
2023-03-15T10:17:03.954Z,9.51
2023-03-15T10:19:39.609Z,9.58
2023-03-15T10:22:21.540Z,9.62
2023-03-15T10:24:51.597Z,9.55
2023-03-15T10:27:25.813Z,9.68
2023-03-15T10:29:56.629Z,9.74
2023-03-15T10:32:28.642Z,9.47
2023-03-15T10:34:58.423Z,9.30
2023-03-15T10:37:28.979Z,9.35
2023-03-15T10:39:59.218Z,9.46
2023-03-15T10:42:30.926Z,9.53
2023-03-15T10:44:59.745Z,9.12
2023-03-15T10:47:28.152Z,8.79
2023-03-15T10:49:59.489Z,8.98
2023-03-15T10:52:35.617Z,9.16
2023-03-15T10:55:07.401Z,9.19
2023-03-15T10:57:40.189Z,8.89
2023-03-15T11:00:22.121Z,9.07
2023-03-15T11:02:51.982Z,9.71
2023-03-15T11:05:20.407Z,9.80
2023-03-15T11:07:57.157Z,9.66
2023-03-15T11:10:29.587Z,9.59
2023-03-15T11:13:13.510Z,9.25
2023-03-15T11:15:49.494Z,8.78
2023-03-15T11:18:20.631Z,8.72
2023-03-15T11:20:48.286Z,8.54
2023-03-15T11:23:22.208Z,9.08
2023-03-15T11:25:49.698Z,9.63
2023-03-15T11:28:22.767Z,10.05
2023-03-15T11:30:50.552Z,10.45
2023-03-15T11:33:29.877Z,10.54
2023-03-15T11:35:59.509Z,10.75
2023-03-15T11:38:32.815Z,10.96
2023-03-15T11:41:02.668Z,11.32
2023-03-15T11:43:45.333Z,11.78
2023-03-15T11:46:22.894Z,11.83
2023-03-15T11:48:57.626Z,11.86
2023-03-15T11:51:25.261Z,12.03
2023-03-15T11:54:03.679Z,12.36
2023-03-15T11:56:51.873Z,12.23
2023-03-15T11:59:25.987Z,12.73
2023-03-15T12:01:58.452Z,13.00
2023-03-15T12:04:49.466Z,12.50
2023-03-15T12:07:38.317Z,12.20
2023-03-15T12:10:20.440Z,10.58
2023-03-15T12:12:56.795Z,10.05
2023-03-15T12:15:46.393Z,9.89
2023-03-15T12:18:20.148Z,9.89
2023-03-15T12:21:07.893Z,9.76
2023-03-15T12:23:40.948Z,9.65
2023-03-15T12:26:16.748Z,9.75
2023-03-15T12:28:52.870Z,9.48
2023-03-15T12:31:23.337Z,9.45
2023-03-15T12:33:53.169Z,9.43
2023-03-15T12:36:32.486Z,9.45
2023-03-15T12:39:03.236Z,9.56
2023-03-15T12:41:38.230Z,9.48
2023-03-15T12:44:25.728Z,9.37
2023-03-15T12:46:57.814Z,9.21
2023-03-15T12:49:37.463Z,9.09
2023-03-15T12:52:24.949Z,9.06
2023-03-15T12:55:00.053Z,8.99
2023-03-15T12:57:30.315Z,8.79
2023-03-15T13:00:00.664Z,8.91
2023-03-15T13:02:43.354Z,8.68
2023-03-15T13:05:23.175Z,8.62
2023-03-15T13:08:08.030Z,8.52
2023-03-15T13:11:14.142Z,8.57
2023-03-15T13:13:58.391Z,8.36
2023-03-15T13:16:34.025Z,8.23
2023-03-15T13:19:31.495Z,8.03
2023-03-15T13:22:13.195Z,7.59
2023-03-15T13:24:52.022Z,7.47
2023-03-15T13:27:35.585Z,6.99
2023-03-15T13:30:24.732Z,6.84
2023-03-15T13:33:03.388Z,6.91
2023-03-15T13:35:31.748Z,6.85
2023-03-15T13:38:08.214Z,7.14
2023-03-15T13:40:46.358Z,7.28
2023-03-15T13:43:13.999Z,7.42
2023-03-15T13:45:43.213Z,7.67
2023-03-15T13:48:12.905Z,7.65
2023-03-15T13:50:41.564Z,7.77
2023-03-15T13:53:18.974Z,7.93
2023-03-15T13:55:51.818Z,8.07
2023-03-15T13:58:19.755Z,8.25
2023-03-15T14:00:47.888Z,8.30
2023-03-15T14:03:20.940Z,8.23
2023-03-15T14:05:52.001Z,8.28
2023-03-15T14:08:24.883Z,8.13
2023-03-15T14:11:04.857Z,8.25
2023-03-15T14:13:34.158Z,8.70
2023-03-15T14:16:04.348Z,8.79
2023-03-15T14:18:36.461Z,8.55
2023-03-15T14:21:07.838Z,8.30
2023-03-15T14:23:42.188Z,8.44
2023-03-15T14:26:18.353Z,8.51
2023-03-15T14:28:51.013Z,8.30
2023-03-15T14:31:24.679Z,8.19
2023-03-15T14:33:54.736Z,8.13
2023-03-15T14:36:25.567Z,8.42
2023-03-15T14:38:57.563Z,8.93
2023-03-15T14:41:31.498Z,8.94
2023-03-15T14:44:00.156Z,8.88
2023-03-15T14:46:28.450Z,9.02
2023-03-15T14:48:56.051Z,9.03
2023-03-15T14:51:24.691Z,8.92
2023-03-15T14:53:55.984Z,8.84
2023-03-15T14:56:24.317Z,9.16
2023-03-15T14:58:52.290Z,9.15
2023-03-15T15:01:23.884Z,8.99
2023-03-15T15:03:54.192Z,8.58
2023-03-15T15:06:22.318Z,8.11
2023-03-15T15:08:55.535Z,8.17
2023-03-15T15:11:25.831Z,8.07
2023-03-15T15:13:53.544Z,8.23
2023-03-15T15:16:21.723Z,7.87
2023-03-15T15:18:50.497Z,7.67
2023-03-15T15:21:24.083Z,7.82
2023-03-15T15:23:58.417Z,7.93
2023-03-15T15:26:32.981Z,8.06
2023-03-15T15:29:00.481Z,7.98
2023-03-15T15:31:30.244Z,7.86
2023-03-15T15:33:58.434Z,7.83
2023-03-15T15:36:29.876Z,7.86
2023-03-15T15:38:58.861Z,7.66
2023-03-15T15:41:29.869Z,7.61
2023-03-15T15:43:58.567Z,7.43
2023-03-15T15:46:26.596Z,7.37
2023-03-15T15:48:54.973Z,7.51
2023-03-15T15:51:28.719Z,7.49
2023-03-15T15:54:00.492Z,7.52
2023-03-15T15:56:34.346Z,7.58
2023-03-15T15:59:04.210Z,7.13
2023-03-15T16:01:32.841Z,6.54
2023-03-15T16:04:01.342Z,6.20
2023-03-15T16:06:29.471Z,6.11
2023-03-15T16:08:59.822Z,6.27
2023-03-15T16:11:28.590Z,6.42
2023-03-15T16:13:57.721Z,6.23
2023-03-15T16:16:26.030Z,6.28
2023-03-15T16:18:53.828Z,6.26
2023-03-15T16:21:29.399Z,6.03
2023-03-15T16:24:00.574Z,5.92
2023-03-15T16:26:28.574Z,5.61
2023-03-15T16:28:57.648Z,5.58
2023-03-15T16:31:25.770Z,5.43
2023-03-15T16:33:53.287Z,5.60
2023-03-15T16:36:22.557Z,5.82
2023-03-15T16:38:50.209Z,6.04
2023-03-15T16:41:18.188Z,6.12
2023-03-15T16:43:49.069Z,6.09
2023-03-15T16:46:19.117Z,6.02
2023-03-15T16:48:46.802Z,5.93
2023-03-15T16:51:18.264Z,5.87
2023-03-15T16:53:45.999Z,5.85
2023-03-15T16:56:15.405Z,5.80
2023-03-15T16:58:44.495Z,5.58
2023-03-15T17:01:13.897Z,5.64
2023-03-15T17:03:43.033Z,5.47
2023-03-15T17:06:16.843Z,5.55
2023-03-15T17:08:44.440Z,5.48
2023-03-15T17:11:12.838Z,5.34
2023-03-15T17:13:41.383Z,5.43
2023-03-15T17:16:12.088Z,5.44
2023-03-15T17:18:41.328Z,5.48
2023-03-15T17:21:12.712Z,5.37
2023-03-15T17:23:42.714Z,5.49
2023-03-15T17:26:12.839Z,5.40
2023-03-15T17:28:41.492Z,5.28
2023-03-15T17:31:24.560Z,5.07
2023-03-15T17:33:53.053Z,5.02
2023-03-15T17:36:25.487Z,5.04
2023-03-15T17:38:54.117Z,5.10
2023-03-15T17:41:24.804Z,5.07
2023-03-15T17:43:52.620Z,5.01
2023-03-15T17:46:21.948Z,4.94
2023-03-15T17:48:49.404Z,4.87
2023-03-15T17:51:23.121Z,4.76
2023-03-15T17:53:55.046Z,4.65
2023-03-15T17:56:23.042Z,4.58
2023-03-15T17:58:50.564Z,4.58
2023-03-15T18:01:20.556Z,4.56
2023-03-15T18:03:48.627Z,4.43
2023-03-15T18:06:19.620Z,4.38
2023-03-15T18:08:48.375Z,4.23
2023-03-15T18:11:22.806Z,4.20
2023-03-15T18:13:54.454Z,4.11
2023-03-15T18:16:22.530Z,4.05
2023-03-15T18:18:50.858Z,4.14
2023-03-15T18:21:20.831Z,4.05
2023-03-15T18:23:48.915Z,4.18
2023-03-15T18:26:19.907Z,4.09
2023-03-15T18:28:47.860Z,4.07
2023-03-15T18:31:18.115Z,3.95
2023-03-15T18:33:46.124Z,3.79
2023-03-15T18:36:14.547Z,3.88
2023-03-15T18:38:43.149Z,3.87
2023-03-15T18:41:16.211Z,3.90
2023-03-15T18:43:46.222Z,3.96
2023-03-15T18:46:14.403Z,3.89
2023-03-15T18:48:45.010Z,3.82
2023-03-15T18:51:14.463Z,3.68
2023-03-15T18:53:43.224Z,3.73
2023-03-15T18:56:16.866Z,3.67
2023-03-15T18:58:46.102Z,3.58
2023-03-15T19:01:15.290Z,3.39
2023-03-15T19:03:43.471Z,3.52
2023-03-15T19:06:12.780Z,3.55
2023-03-15T19:08:41.326Z,3.68
2023-03-15T19:11:09.490Z,3.71
2023-03-15T19:13:38.131Z,3.79
2023-03-15T19:16:08.927Z,3.64
2023-03-15T19:18:37.090Z,3.48
2023-03-15T19:21:05.693Z,3.58
2023-03-15T19:23:34.050Z,3.53
2023-03-15T19:26:02.609Z,3.45
2023-03-15T19:28:30.729Z,3.12
2023-03-15T19:30:59.291Z,3.03
2023-03-15T19:33:29.835Z,3.08
2023-03-15T19:35:59.623Z,2.80
2023-03-15T19:38:27.970Z,2.63
2023-03-15T19:40:56.762Z,2.76
2023-03-15T19:43:24.654Z,2.87
2023-03-15T19:45:55.615Z,2.98
2023-03-15T19:48:23.712Z,2.90
2023-03-15T19:50:53.574Z,2.78
2023-03-15T19:53:21.510Z,2.87
2023-03-15T19:55:49.461Z,2.76
2023-03-15T19:58:17.191Z,2.80
2023-03-15T20:00:47.676Z,2.82
2023-03-15T20:03:15.518Z,2.72
2023-03-15T20:05:46.337Z,2.66
2023-03-15T20:08:15.579Z,2.77
2023-03-15T20:10:44.242Z,2.79
2023-03-15T20:13:12.051Z,2.74
2023-03-15T20:15:40.726Z,2.80
2023-03-15T20:18:08.338Z,2.75
2023-03-15T20:20:38.476Z,2.50
2023-03-15T20:23:05.960Z,2.40
2023-03-15T20:25:35.762Z,2.32
2023-03-15T20:28:03.465Z,2.35
2023-03-15T20:30:31.431Z,2.31
2023-03-15T20:32:59.016Z,2.33
2023-03-15T20:35:26.884Z,2.23
2023-03-15T20:38:02.290Z,2.21
2023-03-15T20:40:30.283Z,2.27
2023-03-15T20:42:59.479Z,2.24
2023-03-15T20:45:27.416Z,2.10
2023-03-15T20:47:55.113Z,2.14
2023-03-15T20:50:24.030Z,2.03
2023-03-15T20:52:52.222Z,2.10
2023-03-15T20:55:20.262Z,2.13
2023-03-15T20:57:48.048Z,2.17
2023-03-15T21:00:18.753Z,2.11
2023-03-15T21:02:46.987Z,2.21
2023-03-15T21:05:16.160Z,2.21
2023-03-15T21:07:44.674Z,2.18
2023-03-15T21:10:13.764Z,2.32
2023-03-15T21:12:41.767Z,2.21
2023-03-15T21:15:11.121Z,2.19
2023-03-15T21:17:40.109Z,2.13
2023-03-15T21:20:09.494Z,2.03
2023-03-15T21:22:37.167Z,1.92
2023-03-15T21:25:05.854Z,2.00
2023-03-15T21:27:33.445Z,1.99
2023-03-15T21:30:01.441Z,2.11
2023-03-15T21:32:30.877Z,1.97
2023-03-15T21:35:00.533Z,1.95
2023-03-15T21:37:28.090Z,1.85
2023-03-15T21:39:56.993Z,1.85
2023-03-15T21:42:24.609Z,1.99
2023-03-15T21:44:52.549Z,1.77
2023-03-15T21:47:20.102Z,1.77
2023-03-15T21:49:50.390Z,1.76
2023-03-15T21:52:19.280Z,1.82
2023-03-15T21:54:47.375Z,1.78
2023-03-15T21:57:15.242Z,1.81
2023-03-15T21:59:43.148Z,1.67
2023-03-15T22:02:11.494Z,1.45
2023-03-15T22:04:39.634Z,1.59
2023-03-15T22:07:07.227Z,1.61
2023-03-15T22:09:36.567Z,1.62
2023-03-15T22:12:04.650Z,1.59
2023-03-15T22:14:32.611Z,1.68
2023-03-15T22:17:00.237Z,1.54
2023-03-15T22:19:28.498Z,1.61
2023-03-15T22:21:56.101Z,1.69
2023-03-15T22:24:23.885Z,1.65
2023-03-15T22:26:52.978Z,1.49
2023-03-15T22:29:20.791Z,1.42
2023-03-15T22:31:48.349Z,1.50
2023-03-15T22:34:16.521Z,1.61
2023-03-15T22:36:44.097Z,1.49
2023-03-15T22:39:12.550Z,1.28
2023-03-15T22:41:40.062Z,1.27
2023-03-15T22:44:09.652Z,1.38
2023-03-15T22:46:37.270Z,1.35
2023-03-15T22:49:05.092Z,1.37
2023-03-15T22:51:32.572Z,1.37
2023-03-15T22:54:00.448Z,1.41
2023-03-15T22:56:28.044Z,1.45
2023-03-15T22:58:56.324Z,1.48
2023-03-15T23:01:25.159Z,1.48
2023-03-15T23:03:53.358Z,1.42
2023-03-15T23:06:20.795Z,1.33
2023-03-15T23:08:48.832Z,1.34
2023-03-15T23:11:17.622Z,1.54
2023-03-15T23:13:45.502Z,1.56
2023-03-15T23:16:12.942Z,1.58
2023-03-15T23:18:43.954Z,1.54
2023-03-15T23:21:13.188Z,1.50
2023-03-15T23:23:41.237Z,1.43
2023-03-15T23:26:08.936Z,1.37
2023-03-15T23:28:36.894Z,1.21
2023-03-15T23:31:06.659Z,1.24
2023-03-15T23:37:16.757Z,1.15
2023-03-15T23:39:44.796Z,1.22
2023-03-15T23:49:45.211Z,1.24
2023-03-15T23:52:13.303Z,1.20
2023-03-15T23:54:42.238Z,1.21
2023-03-15T23:57:12.586Z,1.25
2023-03-15T23:59:41.137Z,1.27
